sensor_id;sensor_type;location;lat;lon;timestamp;temperature;humidity
34572;DHT22;20808;48.974;8.452;2022-08-21T00:00:29;14.70;1.00
34572;DHT22;20808;48.974;8.452;2022-08-21T00:02:59;14.70;99.90
34572;DHT22;20808;48.974;8.452;2022-08-21T00:05:28;14.60;1.00
34572;DHT22;20808;48.974;8.452;2022-08-21T00:07:55;14.50;1.00
34572;DHT22;20808;48.974;8.452;2022-08-21T00:10:23;14.50;1.00
34572;DHT22;20808;48.974;8.452;2022-08-21T00:12:51;14.50;99.90
34572;DHT22;20808;48.974;8.452;2022-08-21T00:15:22;14.60;1.00
34572;DHT22;20808;48.974;8.452;2022-08-21T00:17:49;14.60;1.00
34572;DHT22;20808;48.974;8.452;2022-08-21T00:20:17;14.50;1.00
34572;DHT22;20808;48.974;8.452;2022-08-21T00:22:44;14.40;99.90
34572;DHT22;20808;48.974;8.452;2022-08-21T00:25:13;14.40;1.00
34572;DHT22;20808;48.974;8.452;2022-08-21T00:27:41;14.30;99.90
34572;DHT22;20808;48.974;8.452;2022-08-21T00:30:11;14.30;1.00
34572;DHT22;20808;48.974;8.452;2022-08-21T00:32:39;14.20;1.00
34572;DHT22;20808;48.974;8.452;2022-08-21T00:35:09;14.10;99.90
34572;DHT22;20808;48.974;8.452;2022-08-21T00:37:37;14.10;1.00
34572;DHT22;20808;48.974;8.452;2022-08-21T00:40:05;14.10;1.00
34572;DHT22;20808;48.974;8.452;2022-08-21T00:42:32;14.20;1.00
34572;DHT22;20808;48.974;8.452;2022-08-21T00:44:59;14.20;1.00
34572;DHT22;20808;48.974;8.452;2022-08-21T00:47:27;14.40;1.00
34572;DHT22;20808;48.974;8.452;2022-08-21T00:49:54;14.30;99.90
34572;DHT22;20808;48.974;8.452;2022-08-21T00:52:25;14.10;99.90
34572;DHT22;20808;48.974;8.452;2022-08-21T00:54:54;14.00;1.00
34572;DHT22;20808;48.974;8.452;2022-08-21T00:57:27;13.90;17.60
34572;DHT22;20808;48.974;8.452;2022-08-21T00:59:58;13.80;1.00
34572;DHT22;20808;48.974;8.452;2022-08-21T01:02:28;13.70;22.20
34572;DHT22;20808;48.974;8.452;2022-08-21T01:04:55;13.70;56.90
34572;DHT22;20808;48.974;8.452;2022-08-21T01:07:21;13.80;99.90
34572;DHT22;20808;48.974;8.452;2022-08-21T01:09:49;14.00;99.90
34572;DHT22;20808;48.974;8.452;2022-08-21T01:12:17;14.00;1.00
34572;DHT22;20808;48.974;8.452;2022-08-21T01:14:44;13.90;1.00
34572;DHT22;20808;48.974;8.452;2022-08-21T01:17:13;13.90;1.00
34572;DHT22;20808;48.974;8.452;2022-08-21T01:19:41;13.80;1.00
34572;DHT22;20808;48.974;8.452;2022-08-21T01:22:09;13.70;1.00
34572;DHT22;20808;48.974;8.452;2022-08-21T01:24:36;13.60;99.90
34572;DHT22;20808;48.974;8.452;2022-08-21T01:27:04;13.50;99.90
34572;DHT22;20808;48.974;8.452;2022-08-21T01:29:34;13.50;1.00
34572;DHT22;20808;48.974;8.452;2022-08-21T01:32:05;13.50;1.00
34572;DHT22;20808;48.974;8.452;2022-08-21T01:34:33;13.50;1.00
34572;DHT22;20808;48.974;8.452;2022-08-21T01:37:00;13.40;1.00
34572;DHT22;20808;48.974;8.452;2022-08-21T01:39:29;13.40;1.00
34572;DHT22;20808;48.974;8.452;2022-08-21T01:41:56;13.40;1.00
34572;DHT22;20808;48.974;8.452;2022-08-21T01:44:23;13.30;1.00
34572;DHT22;20808;48.974;8.452;2022-08-21T01:46:51;13.30;1.00
34572;DHT22;20808;48.974;8.452;2022-08-21T01:49:19;13.20;1.00
34572;DHT22;20808;48.974;8.452;2022-08-21T01:51:46;13.20;1.00
34572;DHT22;20808;48.974;8.452;2022-08-21T01:54:12;13.20;1.00
34572;DHT22;20808;48.974;8.452;2022-08-21T01:56:43;13.20;1.00
34572;DHT22;20808;48.974;8.452;2022-08-21T01:59:11;13.20;1.00
34572;DHT22;20808;48.974;8.452;2022-08-21T02:01:38;13.10;1.00
34572;DHT22;20808;48.974;8.452;2022-08-21T02:04:06;13.10;1.00
34572;DHT22;20808;48.974;8.452;2022-08-21T02:06:33;13.00;1.00
34572;DHT22;20808;48.974;8.452;2022-08-21T02:09:01;13.00;1.00
34572;DHT22;20808;48.974;8.452;2022-08-21T02:11:28;13.20;1.00
34572;DHT22;20808;48.974;8.452;2022-08-21T02:13:56;13.20;1.00
34572;DHT22;20808;48.974;8.452;2022-08-21T02:16:23;13.10;1.00
34572;DHT22;20808;48.974;8.452;2022-08-21T02:18:50;13.10;1.00
34572;DHT22;20808;48.974;8.452;2022-08-21T02:21:17;13.00;1.00
34572;DHT22;20808;48.974;8.452;2022-08-21T02:23:44;13.00;1.00
34572;DHT22;20808;48.974;8.452;2022-08-21T02:26:12;12.90;1.00
34572;DHT22;20808;48.974;8.452;2022-08-21T02:28:39;12.80;1.00
34572;DHT22;20808;48.974;8.452;2022-08-21T02:31:07;12.90;1.00
34572;DHT22;20808;48.974;8.452;2022-08-21T02:33:34;12.90;1.00
34572;DHT22;20808;48.974;8.452;2022-08-21T02:36:01;13.00;1.00
34572;DHT22;20808;48.974;8.452;2022-08-21T02:38:31;13.00;1.00
34572;DHT22;20808;48.974;8.452;2022-08-21T02:41:00;12.90;1.00
34572;DHT22;20808;48.974;8.452;2022-08-21T02:43:28;12.90;1.00
34572;DHT22;20808;48.974;8.452;2022-08-21T02:45:56;12.80;1.00
34572;DHT22;20808;48.974;8.452;2022-08-21T02:48:26;12.80;1.00
34572;DHT22;20808;48.974;8.452;2022-08-21T02:50:55;12.80;1.00
34572;DHT22;20808;48.974;8.452;2022-08-21T02:53:23;12.60;1.00
34572;DHT22;20808;48.974;8.452;2022-08-21T02:55:51;12.60;1.00
34572;DHT22;20808;48.974;8.452;2022-08-21T02:58:21;12.60;1.00
34572;DHT22;20808;48.974;8.452;2022-08-21T03:00:49;12.50;1.00
34572;DHT22;20808;48.974;8.452;2022-08-21T03:03:16;12.50;1.00
34572;DHT22;20808;48.974;8.452;2022-08-21T03:05:45;12.50;1.00
34572;DHT22;20808;48.974;8.452;2022-08-21T03:08:13;12.50;1.00
34572;DHT22;20808;48.974;8.452;2022-08-21T03:10:42;12.50;1.00
34572;DHT22;20808;48.974;8.452;2022-08-21T03:13:10;12.50;1.00
34572;DHT22;20808;48.974;8.452;2022-08-21T03:15:38;12.40;1.00
34572;DHT22;20808;48.974;8.452;2022-08-21T03:18:06;12.40;1.00
34572;DHT22;20808;48.974;8.452;2022-08-21T03:20:35;12.50;1.00
34572;DHT22;20808;48.974;8.452;2022-08-21T03:23:05;12.40;1.00
34572;DHT22;20808;48.974;8.452;2022-08-21T03:25:33;12.40;1.00
34572;DHT22;20808;48.974;8.452;2022-08-21T03:28:00;12.30;1.00
34572;DHT22;20808;48.974;8.452;2022-08-21T03:30:28;12.30;4.50
34572;DHT22;20808;48.974;8.452;2022-08-21T03:32:56;12.50;14.30
34572;DHT22;20808;48.974;8.452;2022-08-21T03:35:24;12.70;1.00
34572;DHT22;20808;48.974;8.452;2022-08-21T03:37:51;12.70;1.00
34572;DHT22;20808;48.974;8.452;2022-08-21T03:40:20;12.80;1.00
34572;DHT22;20808;48.974;8.452;2022-08-21T03:42:47;12.80;1.00
34572;DHT22;20808;48.974;8.452;2022-08-21T03:45:15;12.80;1.00
34572;DHT22;20808;48.974;8.452;2022-08-21T03:47:51;13.00;1.00
34572;DHT22;20808;48.974;8.452;2022-08-21T03:50:18;13.20;1.00
34572;DHT22;20808;48.974;8.452;2022-08-21T03:52:45;13.20;1.00
34572;DHT22;20808;48.974;8.452;2022-08-21T03:55:12;13.30;1.00
34572;DHT22;20808;48.974;8.452;2022-08-21T03:57:40;13.30;1.00
34572;DHT22;20808;48.974;8.452;2022-08-21T04:00:08;13.40;1.00
34572;DHT22;20808;48.974;8.452;2022-08-21T04:02:37;13.50;99.90
34572;DHT22;20808;48.974;8.452;2022-08-21T04:05:05;13.60;99.90
34572;DHT22;20808;48.974;8.452;2022-08-21T04:07:32;13.50;99.90
34572;DHT22;20808;48.974;8.452;2022-08-21T04:09:59;13.40;99.90
34572;DHT22;20808;48.974;8.452;2022-08-21T04:12:26;13.40;99.90
34572;DHT22;20808;48.974;8.452;2022-08-21T04:14:54;13.50;99.90
34572;DHT22;20808;48.974;8.452;2022-08-21T04:17:21;13.50;99.90
34572;DHT22;20808;48.974;8.452;2022-08-21T04:19:47;13.40;99.90
34572;DHT22;20808;48.974;8.452;2022-08-21T04:22:15;13.20;99.90
34572;DHT22;20808;48.974;8.452;2022-08-21T04:24:42;13.20;1.00
34572;DHT22;20808;48.974;8.452;2022-08-21T04:27:09;13.40;99.90
34572;DHT22;20808;48.974;8.452;2022-08-21T04:29:35;13.50;99.90
34572;DHT22;20808;48.974;8.452;2022-08-21T04:32:04;13.60;99.90
34572;DHT22;20808;48.974;8.452;2022-08-21T04:34:31;13.70;1.00
34572;DHT22;20808;48.974;8.452;2022-08-21T04:36:58;13.70;1.00
34572;DHT22;20808;48.974;8.452;2022-08-21T04:39:25;13.80;1.00
34572;DHT22;20808;48.974;8.452;2022-08-21T04:41:52;13.70;1.00
34572;DHT22;20808;48.974;8.452;2022-08-21T04:44:19;13.70;1.00
34572;DHT22;20808;48.974;8.452;2022-08-21T04:46:45;13.70;1.00
34572;DHT22;20808;48.974;8.452;2022-08-21T04:49:14;13.60;1.00
34572;DHT22;20808;48.974;8.452;2022-08-21T04:51:41;13.50;1.00
34572;DHT22;20808;48.974;8.452;2022-08-21T04:54:10;13.50;1.00
34572;DHT22;20808;48.974;8.452;2022-08-21T04:56:42;13.60;1.00
34572;DHT22;20808;48.974;8.452;2022-08-21T04:59:13;13.50;1.00
34572;DHT22;20808;48.974;8.452;2022-08-21T05:01:42;13.60;1.00
34572;DHT22;20808;48.974;8.452;2022-08-21T05:04:13;13.60;1.00
34572;DHT22;20808;48.974;8.452;2022-08-21T05:06:43;13.50;1.00
34572;DHT22;20808;48.974;8.452;2022-08-21T05:09:13;13.50;1.00
34572;DHT22;20808;48.974;8.452;2022-08-21T05:11:41;13.60;1.00
34572;DHT22;20808;48.974;8.452;2022-08-21T05:14:08;13.70;1.00
34572;DHT22;20808;48.974;8.452;2022-08-21T05:16:35;13.80;99.90
34572;DHT22;20808;48.974;8.452;2022-08-21T05:19:03;13.90;1.00
34572;DHT22;20808;48.974;8.452;2022-08-21T05:21:30;14.00;1.00
34572;DHT22;20808;48.974;8.452;2022-08-21T05:23:59;14.00;1.00
34572;DHT22;20808;48.974;8.452;2022-08-21T05:26:26;14.00;99.90
34572;DHT22;20808;48.974;8.452;2022-08-21T05:28:52;14.00;99.90
34572;DHT22;20808;48.974;8.452;2022-08-21T05:31:19;14.10;1.00
34572;DHT22;20808;48.974;8.452;2022-08-21T05:33:46;14.20;1.00
34572;DHT22;20808;48.974;8.452;2022-08-21T05:36:13;14.20;1.00
34572;DHT22;20808;48.974;8.452;2022-08-21T05:38:40;14.20;1.00
34572;DHT22;20808;48.974;8.452;2022-08-21T05:41:08;14.30;99.90
34572;DHT22;20808;48.974;8.452;2022-08-21T05:43:35;14.40;99.90
34572;DHT22;20808;48.974;8.452;2022-08-21T05:46:02;14.40;1.00
34572;DHT22;20808;48.974;8.452;2022-08-21T05:48:30;14.50;1.00
34572;DHT22;20808;48.974;8.452;2022-08-21T05:50:57;14.50;99.90
34572;DHT22;20808;48.974;8.452;2022-08-21T05:53:25;14.50;1.00
34572;DHT22;20808;48.974;8.452;2022-08-21T05:55:52;14.50;99.90
34572;DHT22;20808;48.974;8.452;2022-08-21T05:58:21;14.50;1.00
34572;DHT22;20808;48.974;8.452;2022-08-21T06:00:51;14.60;1.00
34572;DHT22;20808;48.974;8.452;2022-08-21T06:03:20;14.60;1.00
34572;DHT22;20808;48.974;8.452;2022-08-21T06:05:48;14.70;99.90
34572;DHT22;20808;48.974;8.452;2022-08-21T06:08:16;14.90;1.00
34572;DHT22;20808;48.974;8.452;2022-08-21T06:10:43;15.20;1.00
34572;DHT22;20808;48.974;8.452;2022-08-21T06:13:11;15.40;1.00
34572;DHT22;20808;48.974;8.452;2022-08-21T06:15:39;15.60;1.00
34572;DHT22;20808;48.974;8.452;2022-08-21T06:18:07;15.80;99.90
34572;DHT22;20808;48.974;8.452;2022-08-21T06:20:33;16.00;1.00
34572;DHT22;20808;48.974;8.452;2022-08-21T06:23:01;16.20;1.00
34572;DHT22;20808;48.974;8.452;2022-08-21T06:25:28;16.30;13.80
34572;DHT22;20808;48.974;8.452;2022-08-21T06:28:00;16.50;1.00
34572;DHT22;20808;48.974;8.452;2022-08-21T06:30:27;16.80;1.00
34572;DHT22;20808;48.974;8.452;2022-08-21T06:32:56;16.90;99.90
34572;DHT22;20808;48.974;8.452;2022-08-21T06:35:23;17.20;1.00
34572;DHT22;20808;48.974;8.452;2022-08-21T06:37:50;17.30;1.00
34572;DHT22;20808;48.974;8.452;2022-08-21T06:40:17;17.50;1.00
34572;DHT22;20808;48.974;8.452;2022-08-21T06:42:44;17.60;1.00
34572;DHT22;20808;48.974;8.452;2022-08-21T06:45:11;17.80;99.90
34572;DHT22;20808;48.974;8.452;2022-08-21T06:47:39;18.00;99.90
34572;DHT22;20808;48.974;8.452;2022-08-21T06:50:08;18.20;99.90
34572;DHT22;20808;48.974;8.452;2022-08-21T06:52:36;18.40;99.90
34572;DHT22;20808;48.974;8.452;2022-08-21T06:55:06;18.60;97.60
34572;DHT22;20808;48.974;8.452;2022-08-21T06:57:33;18.90;62.40
34572;DHT22;20808;48.974;8.452;2022-08-21T07:00:02;19.20;13.50
34572;DHT22;20808;48.974;8.452;2022-08-21T07:02:30;19.40;1.00
34572;DHT22;20808;48.974;8.452;2022-08-21T07:04:58;19.80;1.00
34572;DHT22;20808;48.974;8.452;2022-08-21T07:07:26;20.20;1.00
34572;DHT22;20808;48.974;8.452;2022-08-21T07:09:53;20.40;1.00
34572;DHT22;20808;48.974;8.452;2022-08-21T07:12:20;20.60;1.00
34572;DHT22;20808;48.974;8.452;2022-08-21T07:14:47;20.70;1.00
34572;DHT22;20808;48.974;8.452;2022-08-21T07:17:14;21.00;1.00
34572;DHT22;20808;48.974;8.452;2022-08-21T07:19:41;21.30;1.00
34572;DHT22;20808;48.974;8.452;2022-08-21T07:22:08;21.80;1.00
34572;DHT22;20808;48.974;8.452;2022-08-21T07:24:36;22.20;1.00
34572;DHT22;20808;48.974;8.452;2022-08-21T07:27:03;22.60;1.00
34572;DHT22;20808;48.974;8.452;2022-08-21T07:29:30;22.70;1.00
34572;DHT22;20808;48.974;8.452;2022-08-21T07:31:57;22.80;1.00
34572;DHT22;20808;48.974;8.452;2022-08-21T07:34:24;23.00;1.00
34572;DHT22;20808;48.974;8.452;2022-08-21T07:36:51;23.40;1.00
34572;DHT22;20808;48.974;8.452;2022-08-21T07:39:18;23.70;1.00
34572;DHT22;20808;48.974;8.452;2022-08-21T07:41:46;24.10;1.00
34572;DHT22;20808;48.974;8.452;2022-08-21T07:44:13;23.70;1.00
34572;DHT22;20808;48.974;8.452;2022-08-21T07:46:40;23.30;1.00
34572;DHT22;20808;48.974;8.452;2022-08-21T07:49:07;23.50;1.00
34572;DHT22;20808;48.974;8.452;2022-08-21T07:51:34;24.00;1.00
34572;DHT22;20808;48.974;8.452;2022-08-21T07:54:01;24.30;1.00
34572;DHT22;20808;48.974;8.452;2022-08-21T07:56:30;24.60;1.00
34572;DHT22;20808;48.974;8.452;2022-08-21T07:58:58;25.10;1.00
34572;DHT22;20808;48.974;8.452;2022-08-21T08:01:25;25.60;1.00
34572;DHT22;20808;48.974;8.452;2022-08-21T08:03:52;25.60;1.00
34572;DHT22;20808;48.974;8.452;2022-08-21T08:06:20;25.70;1.00
34572;DHT22;20808;48.974;8.452;2022-08-21T08:08:48;25.30;1.00
34572;DHT22;20808;48.974;8.452;2022-08-21T08:11:15;25.20;1.00
34572;DHT22;20808;48.974;8.452;2022-08-21T08:13:44;25.70;1.00
34572;DHT22;20808;48.974;8.452;2022-08-21T08:16:13;26.20;1.00
34572;DHT22;20808;48.974;8.452;2022-08-21T08:18:40;26.20;1.00
34572;DHT22;20808;48.974;8.452;2022-08-21T08:21:08;26.20;1.00
34572;DHT22;20808;48.974;8.452;2022-08-21T08:23:35;26.10;1.00
34572;DHT22;20808;48.974;8.452;2022-08-21T08:26:02;26.00;1.00
34572;DHT22;20808;48.974;8.452;2022-08-21T08:28:30;26.70;1.00
34572;DHT22;20808;48.974;8.452;2022-08-21T08:30:57;27.50;1.00
34572;DHT22;20808;48.974;8.452;2022-08-21T08:33:26;28.10;1.00
34572;DHT22;20808;48.974;8.452;2022-08-21T08:35:54;28.60;1.00
34572;DHT22;20808;48.974;8.452;2022-08-21T08:38:22;28.60;1.00
34572;DHT22;20808;48.974;8.452;2022-08-21T08:40:54;28.70;1.00
34572;DHT22;20808;48.974;8.452;2022-08-21T08:43:22;28.00;1.00
34572;DHT22;20808;48.974;8.452;2022-08-21T08:45:51;28.20;1.00
34572;DHT22;20808;48.974;8.452;2022-08-21T08:48:36;28.70;1.00
34572;DHT22;20808;48.974;8.452;2022-08-21T08:51:08;29.10;1.00
34572;DHT22;20808;48.974;8.452;2022-08-21T08:53:48;29.50;1.00
34572;DHT22;20808;48.974;8.452;2022-08-21T08:56:21;29.30;1.00
34572;DHT22;20808;48.974;8.452;2022-08-21T08:58:50;29.60;1.00
34572;DHT22;20808;48.974;8.452;2022-08-21T09:01:20;29.50;1.00
34572;DHT22;20808;48.974;8.452;2022-08-21T09:03:49;29.60;1.00
34572;DHT22;20808;48.974;8.452;2022-08-21T09:06:32;29.40;1.00
34572;DHT22;20808;48.974;8.452;2022-08-21T09:09:12;29.50;1.00
34572;DHT22;20808;48.974;8.452;2022-08-21T09:11:51;30.20;1.00
34572;DHT22;20808;48.974;8.452;2022-08-21T09:14:26;29.70;1.00
34572;DHT22;20808;48.974;8.452;2022-08-21T09:17:04;28.60;1.00
34572;DHT22;20808;48.974;8.452;2022-08-21T09:19:59;28.30;1.00
34572;DHT22;20808;48.974;8.452;2022-08-21T09:22:34;28.80;1.00
34572;DHT22;20808;48.974;8.452;2022-08-21T09:25:11;29.30;1.00
34572;DHT22;20808;48.974;8.452;2022-08-21T09:27:39;30.00;1.00
34572;DHT22;20808;48.974;8.452;2022-08-21T09:30:08;31.10;1.00
34572;DHT22;20808;48.974;8.452;2022-08-21T09:32:37;31.00;1.00
34572;DHT22;20808;48.974;8.452;2022-08-21T09:35:08;30.50;1.00
34572;DHT22;20808;48.974;8.452;2022-08-21T09:37:46;30.70;1.00
34572;DHT22;20808;48.974;8.452;2022-08-21T09:40:31;32.00;1.00
34572;DHT22;20808;48.974;8.452;2022-08-21T09:43:00;32.30;1.00
34572;DHT22;20808;48.974;8.452;2022-08-21T09:45:27;33.10;1.00
34572;DHT22;20808;48.974;8.452;2022-08-21T09:47:54;33.20;1.00
34572;DHT22;20808;48.974;8.452;2022-08-21T09:50:26;33.50;1.00
34572;DHT22;20808;48.974;8.452;2022-08-21T09:52:56;33.90;1.00
34572;DHT22;20808;48.974;8.452;2022-08-21T09:55:31;33.90;1.00
34572;DHT22;20808;48.974;8.452;2022-08-21T09:58:16;34.40;1.00
34572;DHT22;20808;48.974;8.452;2022-08-21T10:00:44;34.90;1.00
34572;DHT22;20808;48.974;8.452;2022-08-21T10:03:15;34.40;1.00
34572;DHT22;20808;48.974;8.452;2022-08-21T10:05:54;34.20;1.00
34572;DHT22;20808;48.974;8.452;2022-08-21T10:08:23;34.80;1.00
34572;DHT22;20808;48.974;8.452;2022-08-21T10:10:53;35.30;1.00
34572;DHT22;20808;48.974;8.452;2022-08-21T10:13:24;34.90;1.00
34572;DHT22;20808;48.974;8.452;2022-08-21T10:16:01;35.40;1.00
34572;DHT22;20808;48.974;8.452;2022-08-21T10:18:37;36.30;1.00
34572;DHT22;20808;48.974;8.452;2022-08-21T10:21:13;36.20;1.00
34572;DHT22;20808;48.974;8.452;2022-08-21T10:23:54;36.20;1.00
34572;DHT22;20808;48.974;8.452;2022-08-21T10:26:35;36.10;1.00
34572;DHT22;20808;48.974;8.452;2022-08-21T10:29:14;35.80;1.00
34572;DHT22;20808;48.974;8.452;2022-08-21T10:31:57;36.30;1.00
34572;DHT22;20808;48.974;8.452;2022-08-21T10:34:36;37.10;1.00
34572;DHT22;20808;48.974;8.452;2022-08-21T10:37:19;37.60;1.00
34572;DHT22;20808;48.974;8.452;2022-08-21T10:39:57;38.30;1.00
34572;DHT22;20808;48.974;8.452;2022-08-21T10:42:35;38.90;1.00
34572;DHT22;20808;48.974;8.452;2022-08-21T10:45:12;37.60;1.00
34572;DHT22;20808;48.974;8.452;2022-08-21T10:47:46;37.90;1.00
34572;DHT22;20808;48.974;8.452;2022-08-21T10:50:22;37.90;1.00
34572;DHT22;20808;48.974;8.452;2022-08-21T10:53:13;37.50;1.00
34572;DHT22;20808;48.974;8.452;2022-08-21T10:55:44;37.30;1.00
34572;DHT22;20808;48.974;8.452;2022-08-21T10:58:17;37.70;1.00
34572;DHT22;20808;48.974;8.452;2022-08-21T11:00:49;38.30;1.00
34572;DHT22;20808;48.974;8.452;2022-08-21T11:03:24;38.40;1.00
34572;DHT22;20808;48.974;8.452;2022-08-21T11:05:54;38.70;1.00
34572;DHT22;20808;48.974;8.452;2022-08-21T11:08:26;38.80;1.00
34572;DHT22;20808;48.974;8.452;2022-08-21T11:11:00;38.00;1.00
34572;DHT22;20808;48.974;8.452;2022-08-21T11:13:33;37.60;1.00
34572;DHT22;20808;48.974;8.452;2022-08-21T11:16:07;38.00;1.00
34572;DHT22;20808;48.974;8.452;2022-08-21T11:18:39;38.40;1.00
34572;DHT22;20808;48.974;8.452;2022-08-21T11:21:30;39.30;1.00
34572;DHT22;20808;48.974;8.452;2022-08-21T11:24:09;39.10;1.00
34572;DHT22;20808;48.974;8.452;2022-08-21T11:26:44;38.50;1.00
34572;DHT22;20808;48.974;8.452;2022-08-21T11:29:18;38.10;1.00
34572;DHT22;20808;48.974;8.452;2022-08-21T11:31:56;38.30;1.00
34572;DHT22;20808;48.974;8.452;2022-08-21T11:34:39;38.00;1.00
34572;DHT22;20808;48.974;8.452;2022-08-21T11:37:17;38.40;1.00
34572;DHT22;20808;48.974;8.452;2022-08-21T11:39:55;40.40;1.00
34572;DHT22;20808;48.974;8.452;2022-08-21T11:42:29;39.50;1.00
34572;DHT22;20808;48.974;8.452;2022-08-21T11:45:14;39.10;1.00
34572;DHT22;20808;48.974;8.452;2022-08-21T11:47:53;39.60;1.00
34572;DHT22;20808;48.974;8.452;2022-08-21T11:50:25;40.10;1.00
34572;DHT22;20808;48.974;8.452;2022-08-21T11:52:56;40.30;1.00
34572;DHT22;20808;48.974;8.452;2022-08-21T11:55:29;40.30;1.00
34572;DHT22;20808;48.974;8.452;2022-08-21T11:58:02;39.40;1.00
34572;DHT22;20808;48.974;8.452;2022-08-21T12:00:34;39.30;1.00
34572;DHT22;20808;48.974;8.452;2022-08-21T12:03:09;40.40;1.00
34572;DHT22;20808;48.974;8.452;2022-08-21T12:05:40;40.90;1.00
34572;DHT22;20808;48.974;8.452;2022-08-21T12:08:14;41.10;1.00
34572;DHT22;20808;48.974;8.452;2022-08-21T12:10:47;40.20;1.00
34572;DHT22;20808;48.974;8.452;2022-08-21T12:13:28;39.60;1.00
34572;DHT22;20808;48.974;8.452;2022-08-21T12:16:05;39.00;1.00
34572;DHT22;20808;48.974;8.452;2022-08-21T12:18:32;38.70;1.00
34572;DHT22;20808;48.974;8.452;2022-08-21T12:21:03;37.30;1.00
34572;DHT22;20808;48.974;8.452;2022-08-21T12:23:33;37.30;1.00
34572;DHT22;20808;48.974;8.452;2022-08-21T12:26:22;37.90;1.00
34572;DHT22;20808;48.974;8.452;2022-08-21T12:28:50;38.70;1.00
34572;DHT22;20808;48.974;8.452;2022-08-21T12:31:23;40.10;1.00
34572;DHT22;20808;48.974;8.452;2022-08-21T12:33:54;40.70;1.00
34572;DHT22;20808;48.974;8.452;2022-08-21T12:36:27;41.60;1.00
34572;DHT22;20808;48.974;8.452;2022-08-21T12:38:58;42.30;1.00
34572;DHT22;20808;48.974;8.452;2022-08-21T12:41:30;40.80;1.00
34572;DHT22;20808;48.974;8.452;2022-08-21T12:44:02;40.80;1.00
34572;DHT22;20808;48.974;8.452;2022-08-21T12:46:36;40.90;1.00
34572;DHT22;20808;48.974;8.452;2022-08-21T12:49:12;41.00;1.00
34572;DHT22;20808;48.974;8.452;2022-08-21T12:51:50;40.90;1.00
34572;DHT22;20808;48.974;8.452;2022-08-21T12:54:26;40.30;1.00
34572;DHT22;20808;48.974;8.452;2022-08-21T12:56:59;39.70;1.00
34572;DHT22;20808;48.974;8.452;2022-08-21T12:59:27;39.60;1.00
34572;DHT22;20808;48.974;8.452;2022-08-21T13:01:54;39.10;1.00
34572;DHT22;20808;48.974;8.452;2022-08-21T13:04:28;38.80;1.00
34572;DHT22;20808;48.974;8.452;2022-08-21T13:06:59;38.70;1.00
34572;DHT22;20808;48.974;8.452;2022-08-21T13:09:28;39.20;1.00
34572;DHT22;20808;48.974;8.452;2022-08-21T13:11:58;38.90;1.00
34572;DHT22;20808;48.974;8.452;2022-08-21T13:14:29;38.90;1.00
34572;DHT22;20808;48.974;8.452;2022-08-21T13:16:58;38.90;1.00
34572;DHT22;20808;48.974;8.452;2022-08-21T13:19:26;39.30;1.00
34572;DHT22;20808;48.974;8.452;2022-08-21T13:21:55;39.10;1.00
34572;DHT22;20808;48.974;8.452;2022-08-21T13:24:25;39.60;1.00
34572;DHT22;20808;48.974;8.452;2022-08-21T13:26:52;40.90;1.00
34572;DHT22;20808;48.974;8.452;2022-08-21T13:29:22;41.10;1.00
34572;DHT22;20808;48.974;8.452;2022-08-21T13:31:52;41.50;1.00
34572;DHT22;20808;48.974;8.452;2022-08-21T13:34:21;41.30;1.00
34572;DHT22;20808;48.974;8.452;2022-08-21T13:36:51;40.90;1.00
34572;DHT22;20808;48.974;8.452;2022-08-21T13:39:19;39.40;1.00
34572;DHT22;20808;48.974;8.452;2022-08-21T13:41:49;37.30;1.00
34572;DHT22;20808;48.974;8.452;2022-08-21T13:44:22;37.30;1.00
34572;DHT22;20808;48.974;8.452;2022-08-21T13:46:52;37.60;1.00
34572;DHT22;20808;48.974;8.452;2022-08-21T13:49:33;37.00;1.00
34572;DHT22;20808;48.974;8.452;2022-08-21T13:52:01;36.70;1.00
34572;DHT22;20808;48.974;8.452;2022-08-21T13:54:36;36.90;1.00
34572;DHT22;20808;48.974;8.452;2022-08-21T13:57:03;36.30;1.00
34572;DHT22;20808;48.974;8.452;2022-08-21T13:59:34;36.90;1.00
34572;DHT22;20808;48.974;8.452;2022-08-21T14:02:08;37.90;1.00
34572;DHT22;20808;48.974;8.452;2022-08-21T14:04:39;38.40;1.00
34572;DHT22;20808;48.974;8.452;2022-08-21T14:07:15;38.60;1.00
34572;DHT22;20808;48.974;8.452;2022-08-21T14:09:43;37.80;1.00
34572;DHT22;20808;48.974;8.452;2022-08-21T14:12:14;38.40;1.00
34572;DHT22;20808;48.974;8.452;2022-08-21T14:14:43;38.80;1.00
34572;DHT22;20808;48.974;8.452;2022-08-21T14:17:14;38.00;1.00
34572;DHT22;20808;48.974;8.452;2022-08-21T14:19:52;37.80;1.00
34572;DHT22;20808;48.974;8.452;2022-08-21T14:22:30;37.50;1.00
34572;DHT22;20808;48.974;8.452;2022-08-21T14:25:02;37.00;1.00
34572;DHT22;20808;48.974;8.452;2022-08-21T14:27:30;37.70;1.00
34572;DHT22;20808;48.974;8.452;2022-08-21T14:30:01;38.40;1.00
34572;DHT22;20808;48.974;8.452;2022-08-21T14:32:37;38.30;1.00
34572;DHT22;20808;48.974;8.452;2022-08-21T14:35:05;38.70;1.00
34572;DHT22;20808;48.974;8.452;2022-08-21T14:37:32;38.50;1.00
34572;DHT22;20808;48.974;8.452;2022-08-21T14:39:59;37.80;1.00
34572;DHT22;20808;48.974;8.452;2022-08-21T14:42:26;38.20;1.00
34572;DHT22;20808;48.974;8.452;2022-08-21T14:44:57;37.90;1.00
34572;DHT22;20808;48.974;8.452;2022-08-21T14:47:27;38.10;1.00
34572;DHT22;20808;48.974;8.452;2022-08-21T14:49:54;38.30;1.00
34572;DHT22;20808;48.974;8.452;2022-08-21T14:52:21;37.50;1.00
34572;DHT22;20808;48.974;8.452;2022-08-21T14:54:49;37.30;1.00
34572;DHT22;20808;48.974;8.452;2022-08-21T14:57:16;37.40;1.00
34572;DHT22;20808;48.974;8.452;2022-08-21T14:59:43;37.90;1.00
34572;DHT22;20808;48.974;8.452;2022-08-21T15:02:10;38.00;1.00
34572;DHT22;20808;48.974;8.452;2022-08-21T15:04:38;37.90;1.00
34572;DHT22;20808;48.974;8.452;2022-08-21T15:07:05;37.50;1.00
34572;DHT22;20808;48.974;8.452;2022-08-21T15:09:32;37.30;1.00
34572;DHT22;20808;48.974;8.452;2022-08-21T15:12:00;37.00;1.00
34572;DHT22;20808;48.974;8.452;2022-08-21T15:14:29;36.90;1.00
34572;DHT22;20808;48.974;8.452;2022-08-21T15:16:57;37.00;1.00
34572;DHT22;20808;48.974;8.452;2022-08-21T15:19:24;37.20;1.00
34572;DHT22;20808;48.974;8.452;2022-08-21T15:21:52;36.50;1.00
34572;DHT22;20808;48.974;8.452;2022-08-21T15:24:19;36.60;1.00
34572;DHT22;20808;48.974;8.452;2022-08-21T15:26:46;36.80;1.00
34572;DHT22;20808;48.974;8.452;2022-08-21T15:29:14;36.80;1.00
34572;DHT22;20808;48.974;8.452;2022-08-21T15:31:51;37.10;1.00
34572;DHT22;20808;48.974;8.452;2022-08-21T15:34:19;36.60;1.00
34572;DHT22;20808;48.974;8.452;2022-08-21T15:36:45;36.30;1.00
34572;DHT22;20808;48.974;8.452;2022-08-21T15:39:14;36.30;1.00
34572;DHT22;20808;48.974;8.452;2022-08-21T15:41:40;36.40;1.00
34572;DHT22;20808;48.974;8.452;2022-08-21T15:44:09;36.20;1.00
34572;DHT22;20808;48.974;8.452;2022-08-21T15:46:37;35.70;1.00
34572;DHT22;20808;48.974;8.452;2022-08-21T15:49:04;35.90;1.00
34572;DHT22;20808;48.974;8.452;2022-08-21T15:51:32;35.70;1.00
34572;DHT22;20808;48.974;8.452;2022-08-21T15:53:59;35.00;1.00
34572;DHT22;20808;48.974;8.452;2022-08-21T15:56:33;34.20;1.00
34572;DHT22;20808;48.974;8.452;2022-08-21T15:59:03;33.50;1.00
34572;DHT22;20808;48.974;8.452;2022-08-21T16:01:30;32.90;1.00